Overview Statistics Trail Chart Weather Telemetry Raw packets
 

This is the latest recevied weather packets stored in our database for station/object K7DC. If no packets are shown the sender has not sent any weather packets the latest 10 day(s).

<< 38 39 40 41 42 43 44 >>
Time Temp. Humidity Pressure Rain* Wind** Luminosity Snow
1788376597 37.78° C 34% 1017.1 hPa 0 mm - 604 W/m² -
1788376297 37.78° C 34% 1017 hPa 0 mm - 383 W/m² -
1788375993 36.67° C 35% 1017.4 hPa 0 mm - 1030 W/m² -
1788375688 35.56° C 37% 1017.6 hPa 0 mm - 1023 W/m² -
1788375384 35° C 39% 1017.6 hPa 0 mm - 288 W/m² -
1788375080 35° C 39% 1017.6 hPa 0 mm - 230 W/m² -
1788374774 35° C 39% 1017.6 hPa 0 mm - 369 W/m² -
1788374469 35.56° C 38% 1017.9 hPa 0 mm - 1000 W/m² -
1788374166 36.67° C 37% 1017.9 hPa 0 mm - 935 W/m² -
1788373862 37.78° C 32% 1017.7 hPa 0 mm - 909 W/m² -
1788373558 36.67° C 35% 1018 hPa 0 mm - 887 W/m² -
1788373254 36.67° C 35% 1018 hPa 0 mm - 884 W/m² -
1788372950 35.56° C 37% 1018.1 hPa 0 mm - 855 W/m² -
1788372649 35° C 40% 1018 hPa 0 mm - 855 W/m² -
1788372344 33.89° C 41% 1018.2 hPa 0 mm - 875 W/m² -
1788372040 33.89° C 42% 1018 hPa 0 mm - 849 W/m² -
1788371739 33.33° C 44% 1018.1 hPa 0 mm - 815 W/m² -
1788371436 32.78° C 44% 1018.2 hPa 0 mm - 803 W/m² -
1788371132 32.78° C 45% 1018.2 hPa 0 mm - 791 W/m² -
1788370849 32.78° C 45% 1018.1 hPa 0 mm - 778 W/m² -
1788370527 32.78° C 45% 1018.1 hPa 0 mm - 772 W/m² -
1788370227 33.33° C 45% 1018.1 hPa 0 mm - 758 W/m² -
1788369927 33.33° C 43% 1018.4 hPa 0 mm - 747 W/m² -
1788369622 32.78° C 45% 1018.3 hPa 0 mm - 732 W/m² -
1788369328 32.22° C 47% 1018.3 hPa 0 mm - 723 W/m² -

* Rain latest hour (hover to see other rain measurements)
** Current wind speed in m/s (hover to see current wind gust speed)